sensor_id;sensor_type;location;lat;lon;timestamp;pressure;altitude;pressure_sealevel;temperature;humidity
26083;BME280;13848;49.018;12.078;2023-04-10T00:02:04;98443.13;;;6.01;69.85
26083;BME280;13848;49.018;12.078;2023-04-10T00:04:30;98448.84;;;5.98;70.20
26083;BME280;13848;49.018;12.078;2023-04-10T00:06:56;98442.22;;;6.08;69.55
26083;BME280;13848;49.018;12.078;2023-04-10T00:09:22;98444.41;;;6.13;69.22
26083;BME280;13848;49.018;12.078;2023-04-10T00:11:48;98444.63;;;6.03;69.98
26083;BME280;13848;49.018;12.078;2023-04-10T00:14:14;98432.72;;;6.06;69.70
26083;BME280;13848;49.018;12.078;2023-04-10T00:16:41;98438.72;;;6.08;69.47
26083;BME280;13848;49.018;12.078;2023-04-10T00:19:07;98443.56;;;6.12;69.93
26083;BME280;13848;49.018;12.078;2023-04-10T00:21:33;98440.19;;;6.19;69.37
26083;BME280;13848;49.018;12.078;2023-04-10T00:23:59;98435.91;;;6.01;69.00
26083;BME280;13848;49.018;12.078;2023-04-10T00:26:25;98432.22;;;6.02;69.33
26083;BME280;13848;49.018;12.078;2023-04-10T00:28:51;98443.66;;;5.88;69.27
26083;BME280;13848;49.018;12.078;2023-04-10T00:31:17;98443.66;;;5.88;69.51
26083;BME280;13848;49.018;12.078;2023-04-10T00:33:44;98438.28;;;5.88;69.25
26083;BME280;13848;49.018;12.078;2023-04-10T00:36:10;98441.16;;;5.86;69.97
26083;BME280;13848;49.018;12.078;2023-04-10T00:38:36;98432.59;;;5.99;68.97
26083;BME280;13848;49.018;12.078;2023-04-10T00:41:02;98424.88;;;6.04;69.97
26083;BME280;13848;49.018;12.078;2023-04-10T00:43:29;98427.19;;;6.07;69.19
26083;BME280;13848;49.018;12.078;2023-04-10T00:45:55;98423.22;;;6.03;69.26
26083;BME280;13848;49.018;12.078;2023-04-10T00:48:21;98422.84;;;6.06;69.46
26083;BME280;13848;49.018;12.078;2023-04-10T00:50:49;98422.97;;;6.13;69.44
26083;BME280;13848;49.018;12.078;2023-04-10T00:53:15;98413.53;;;5.94;68.52
26083;BME280;13848;49.018;12.078;2023-04-10T00:55:41;98413.22;;;5.97;69.51
26083;BME280;13848;49.018;12.078;2023-04-10T00:58:07;98420.00;;;6.08;69.12
26083;BME280;13848;49.018;12.078;2023-04-10T01:00:33;98417.16;;;6.09;69.27
26083;BME280;13848;49.018;12.078;2023-04-10T01:02:59;98413.66;;;6.09;69.38
26083;BME280;13848;49.018;12.078;2023-04-10T01:05:27;98415.13;;;6.11;69.21
26083;BME280;13848;49.018;12.078;2023-04-10T01:08:07;98415.19;;;6.03;69.58
26083;BME280;13848;49.018;12.078;2023-04-10T01:10:42;98410.09;;;6.08;69.34
26083;BME280;13848;49.018;12.078;2023-04-10T01:13:17;98405.81;;;5.99;69.37
26083;BME280;13848;49.018;12.078;2023-04-10T01:15:48;98406.47;;;6.01;69.14
26083;BME280;13848;49.018;12.078;2023-04-10T01:18:23;98400.72;;;6.12;70.19
26083;BME280;13848;49.018;12.078;2023-04-10T01:20:51;98411.94;;;6.16;69.35
26083;BME280;13848;49.018;12.078;2023-04-10T01:23:59;98405.44;;;6.10;70.10
26083;BME280;13848;49.018;12.078;2023-04-10T01:26:41;98394.66;;;6.19;69.06
26083;BME280;13848;49.018;12.078;2023-04-10T01:29:16;98394.22;;;6.15;69.57
26083;BME280;13848;49.018;12.078;2023-04-10T01:31:45;98405.75;;;6.16;69.92
26083;BME280;13848;49.018;12.078;2023-04-10T01:34:19;98395.38;;;6.12;69.53
26083;BME280;13848;49.018;12.078;2023-04-10T01:36:49;98387.31;;;6.21;68.86
26083;BME280;13848;49.018;12.078;2023-04-10T01:39:18;98379.28;;;6.21;68.98
26083;BME280;13848;49.018;12.078;2023-04-10T01:41:45;98382.94;;;6.20;69.11
26083;BME280;13848;49.018;12.078;2023-04-10T01:44:14;98378.00;;;6.08;69.26
26083;BME280;13848;49.018;12.078;2023-04-10T01:46:43;98386.00;;;6.08;68.96
26083;BME280;13848;49.018;12.078;2023-04-10T01:49:10;98378.41;;;5.89;70.16
26083;BME280;13848;49.018;12.078;2023-04-10T01:51:37;98376.44;;;5.83;69.51
26083;BME280;13848;49.018;12.078;2023-04-10T01:54:04;98375.16;;;5.71;70.11
26083;BME280;13848;49.018;12.078;2023-04-10T01:56:31;98383.63;;;5.82;69.86
26083;BME280;13848;49.018;12.078;2023-04-10T01:58:58;98383.81;;;5.81;69.66
26083;BME280;13848;49.018;12.078;2023-04-10T02:01:25;98383.81;;;5.73;69.86
26083;BME280;13848;49.018;12.078;2023-04-10T02:03:51;98384.19;;;5.70;70.11
26083;BME280;13848;49.018;12.078;2023-04-10T02:06:22;98382.03;;;5.65;69.53
26083;BME280;13848;49.018;12.078;2023-04-10T02:08:54;98377.22;;;5.52;70.83
26083;BME280;13848;49.018;12.078;2023-04-10T02:11:29;98379.22;;;5.50;70.32
26083;BME280;13848;49.018;12.078;2023-04-10T02:13:59;98379.91;;;5.52;71.03
26083;BME280;13848;49.018;12.078;2023-04-10T02:16:28;98379.91;;;5.52;69.93
26083;BME280;13848;49.018;12.078;2023-04-10T02:18:56;98386.25;;;5.51;71.16
26083;BME280;13848;49.018;12.078;2023-04-10T02:21:23;98384.94;;;5.39;70.91
26083;BME280;13848;49.018;12.078;2023-04-10T02:23:49;98377.56;;;5.49;70.58
26083;BME280;13848;49.018;12.078;2023-04-10T02:26:14;98371.56;;;5.39;71.32
26083;BME280;13848;49.018;12.078;2023-04-10T02:28:40;98381.66;;;5.29;70.87
26083;BME280;13848;49.018;12.078;2023-04-10T02:31:06;98379.34;;;5.18;71.01
26083;BME280;13848;49.018;12.078;2023-04-10T02:33:34;98381.69;;;5.13;71.76
26083;BME280;13848;49.018;12.078;2023-04-10T02:35:59;98380.00;;;5.12;71.19
26083;BME280;13848;49.018;12.078;2023-04-10T02:38:25;98373.97;;;5.10;71.31
26083;BME280;13848;49.018;12.078;2023-04-10T02:40:51;98378.16;;;5.20;70.33
26083;BME280;13848;49.018;12.078;2023-04-10T02:43:17;98385.00;;;5.15;72.01
26083;BME280;13848;49.018;12.078;2023-04-10T02:45:43;98388.69;;;5.14;70.99
26083;BME280;13848;49.018;12.078;2023-04-10T02:48:09;98389.19;;;5.09;71.50
26083;BME280;13848;49.018;12.078;2023-04-10T02:50:36;98390.03;;;5.01;71.20
26083;BME280;13848;49.018;12.078;2023-04-10T02:53:02;98397.41;;;4.99;70.95
26083;BME280;13848;49.018;12.078;2023-04-10T02:55:28;98400.72;;;5.01;71.62
26083;BME280;13848;49.018;12.078;2023-04-10T02:57:54;98392.38;;;4.96;71.35
26083;BME280;13848;49.018;12.078;2023-04-10T03:00:21;98394.72;;;4.91;72.31
26083;BME280;13848;49.018;12.078;2023-04-10T03:02:47;98389.72;;;4.88;71.75
26083;BME280;13848;49.018;12.078;2023-04-10T03:05:13;98395.41;;;4.85;71.61
26083;BME280;13848;49.018;12.078;2023-04-10T03:07:40;98389.56;;;4.82;71.77
26083;BME280;13848;49.018;12.078;2023-04-10T03:10:07;98398.09;;;4.77;72.43
26083;BME280;13848;49.018;12.078;2023-04-10T03:12:33;98402.09;;;4.73;72.05
26083;BME280;13848;49.018;12.078;2023-04-10T03:14:59;98402.44;;;4.70;72.25
26083;BME280;13848;49.018;12.078;2023-04-10T03:17:25;98397.72;;;4.64;71.60
26083;BME280;13848;49.018;12.078;2023-04-10T03:19:51;98392.91;;;4.67;71.75
26083;BME280;13848;49.018;12.078;2023-04-10T03:22:17;98404.59;;;4.66;72.60
26083;BME280;13848;49.018;12.078;2023-04-10T03:24:44;98404.75;;;4.65;71.66
26083;BME280;13848;49.018;12.078;2023-04-10T03:27:10;98408.09;;;4.67;72.54
26083;BME280;13848;49.018;12.078;2023-04-10T03:29:36;98405.09;;;4.62;71.69
26083;BME280;13848;49.018;12.078;2023-04-10T03:32:02;98395.72;;;4.58;72.31
26083;BME280;13848;49.018;12.078;2023-04-10T03:34:28;98398.22;;;4.51;72.27
26083;BME280;13848;49.018;12.078;2023-04-10T03:36:53;98396.56;;;4.50;72.90
26083;BME280;13848;49.018;12.078;2023-04-10T03:39:19;98393.88;;;4.34;73.00
26083;BME280;13848;49.018;12.078;2023-04-10T03:41:47;98389.38;;;4.26;72.97
26083;BME280;13848;49.018;12.078;2023-04-10T03:44:13;98389.69;;;4.23;73.27
26083;BME280;13848;49.018;12.078;2023-04-10T03:46:38;98394.34;;;4.21;72.78
26083;BME280;13848;49.018;12.078;2023-04-10T03:49:04;98395.63;;;3.92;73.19
26083;BME280;13848;49.018;12.078;2023-04-10T03:51:30;98400.00;;;4.10;72.93
26083;BME280;13848;49.018;12.078;2023-04-10T03:53:56;98403.03;;;4.23;72.73
26083;BME280;13848;49.018;12.078;2023-04-10T03:56:22;98405.38;;;4.26;72.81
26083;BME280;13848;49.018;12.078;2023-04-10T03:58:49;98404.03;;;4.22;72.82
26083;BME280;13848;49.018;12.078;2023-04-10T04:01:15;98399.69;;;4.21;73.08
26083;BME280;13848;49.018;12.078;2023-04-10T04:03:41;98404.69;;;4.16;72.61
26083;BME280;13848;49.018;12.078;2023-04-10T04:06:07;98401.69;;;4.27;72.98
26083;BME280;13848;49.018;12.078;2023-04-10T04:08:33;98408.41;;;4.31;72.29
26083;BME280;13848;49.018;12.078;2023-04-10T04:10:59;98408.03;;;4.26;73.27
26083;BME280;13848;49.018;12.078;2023-04-10T04:13:25;98404.19;;;4.12;73.08
26083;BME280;13848;49.018;12.078;2023-04-10T04:15:52;98410.84;;;4.16;72.97
26083;BME280;13848;49.018;12.078;2023-04-10T04:18:18;98410.06;;;4.24;72.99
26083;BME280;13848;49.018;12.078;2023-04-10T04:20:44;98405.38;;;4.26;72.95
26083;BME280;13848;49.018;12.078;2023-04-10T04:23:10;98407.88;;;4.27;72.58
26083;BME280;13848;49.018;12.078;2023-04-10T04:25:36;98409.06;;;4.33;72.93
26083;BME280;13848;49.018;12.078;2023-04-10T04:28:02;98401.38;;;4.30;72.57
26083;BME280;13848;49.018;12.078;2023-04-10T04:30:28;98411.72;;;4.33;73.37
26083;BME280;13848;49.018;12.078;2023-04-10T04:32:55;98407.91;;;4.36;73.16
26083;BME280;13848;49.018;12.078;2023-04-10T04:35:21;98414.06;;;4.36;73.01
26083;BME280;13848;49.018;12.078;2023-04-10T04:37:47;98413.06;;;4.37;72.80
26083;BME280;13848;49.018;12.078;2023-04-10T04:40:13;98423.09;;;4.51;72.08
26083;BME280;13848;49.018;12.078;2023-04-10T04:42:39;98429.94;;;4.54;71.85
26083;BME280;13848;49.018;12.078;2023-04-10T04:45:06;98434.09;;;4.40;72.47
26083;BME280;13848;49.018;12.078;2023-04-10T04:47:33;98437.63;;;4.41;72.25
26083;BME280;13848;49.018;12.078;2023-04-10T04:50:00;98442.44;;;4.45;72.45
26083;BME280;13848;49.018;12.078;2023-04-10T04:52:26;98438.75;;;4.46;71.87
26083;BME280;13848;49.018;12.078;2023-04-10T04:54:52;98435.78;;;4.58;71.98
26083;BME280;13848;49.018;12.078;2023-04-10T04:57:18;98440.47;;;4.64;71.35
26083;BME280;13848;49.018;12.078;2023-04-10T04:59:43;98439.47;;;4.57;72.28
26083;BME280;13848;49.018;12.078;2023-04-10T05:02:09;98441.47;;;4.54;72.32
26083;BME280;13848;49.018;12.078;2023-04-10T05:04:35;98446.50;;;4.66;72.00
26083;BME280;13848;49.018;12.078;2023-04-10T05:07:03;98448.16;;;4.75;72.27
26083;BME280;13848;49.018;12.078;2023-04-10T05:09:28;98450.50;;;4.86;71.47
26083;BME280;13848;49.018;12.078;2023-04-10T05:11:54;98447.00;;;4.77;71.34
26083;BME280;13848;49.018;12.078;2023-04-10T05:14:20;98445.50;;;4.83;71.57
26083;BME280;13848;49.018;12.078;2023-04-10T05:16:46;98434.31;;;4.79;71.78
26083;BME280;13848;49.018;12.078;2023-04-10T05:19:12;98445.16;;;4.70;72.51
26083;BME280;13848;49.018;12.078;2023-04-10T05:21:38;98444.16;;;4.71;72.37
26083;BME280;13848;49.018;12.078;2023-04-10T05:24:05;98449.66;;;4.77;71.99
26083;BME280;13848;49.018;12.078;2023-04-10T05:26:31;98440.63;;;4.87;72.26
26083;BME280;13848;49.018;12.078;2023-04-10T05:28:57;98441.81;;;4.84;71.48
26083;BME280;13848;49.018;12.078;2023-04-10T05:31:23;98443.81;;;4.98;71.35
26083;BME280;13848;49.018;12.078;2023-04-10T05:33:49;98441.16;;;5.06;72.29
26083;BME280;13848;49.018;12.078;2023-04-10T05:36:15;98440.47;;;5.21;71.28
26083;BME280;13848;49.018;12.078;2023-04-10T05:38:41;98445.13;;;5.27;71.38
26083;BME280;13848;49.018;12.078;2023-04-10T05:41:08;98443.47;;;5.34;71.65
26083;BME280;13848;49.018;12.078;2023-04-10T05:43:34;98439.41;;;5.54;70.83
26083;BME280;13848;49.018;12.078;2023-04-10T05:46:00;98440.38;;;5.61;70.34
26083;BME280;13848;49.018;12.078;2023-04-10T05:48:26;98446.50;;;5.78;70.23
26083;BME280;13848;49.018;12.078;2023-04-10T05:50:52;98448.66;;;5.91;70.22
26083;BME280;13848;49.018;12.078;2023-04-10T05:53:18;98449.47;;;6.00;69.61
26083;BME280;13848;49.018;12.078;2023-04-10T05:55:48;98446.56;;;6.18;69.60
26083;BME280;13848;49.018;12.078;2023-04-10T05:58:15;98449.19;;;6.26;69.78
26083;BME280;13848;49.018;12.078;2023-04-10T06:00:41;98448.44;;;6.40;68.80
26083;BME280;13848;49.018;12.078;2023-04-10T06:03:07;98445.72;;;6.48;69.21
26083;BME280;13848;49.018;12.078;2023-04-10T06:05:33;98445.66;;;6.56;68.84
26083;BME280;13848;49.018;12.078;2023-04-10T06:07:59;98454.72;;;6.78;69.12
26083;BME280;13848;49.018;12.078;2023-04-10T06:10:27;98455.06;;;6.98;68.39
26083;BME280;13848;49.018;12.078;2023-04-10T06:12:53;98452.03;;;7.01;68.42
26083;BME280;13848;49.018;12.078;2023-04-10T06:15:21;98451.44;;;7.29;68.13
26083;BME280;13848;49.018;12.078;2023-04-10T06:17:47;98450.72;;;7.35;67.09
26083;BME280;13848;49.018;12.078;2023-04-10T06:20:12;98449.34;;;7.39;67.24
26083;BME280;13848;49.018;12.078;2023-04-10T06:22:38;98449.34;;;7.39;66.72
26083;BME280;13848;49.018;12.078;2023-04-10T06:25:05;98448.06;;;7.64;67.70
26083;BME280;13848;49.018;12.078;2023-04-10T06:27:32;98452.25;;;7.82;66.84
26083;BME280;13848;49.018;12.078;2023-04-10T06:29:58;98444.41;;;7.95;66.16
26083;BME280;13848;49.018;12.078;2023-04-10T06:32:26;98428.75;;;7.84;67.20
26083;BME280;13848;49.018;12.078;2023-04-10T06:34:52;98435.97;;;7.83;67.36
26083;BME280;13848;49.018;12.078;2023-04-10T06:37:18;98439.06;;;8.16;66.48
26083;BME280;13848;49.018;12.078;2023-04-10T06:39:44;98435.59;;;8.01;66.75
26083;BME280;13848;49.018;12.078;2023-04-10T06:42:10;98439.28;;;8.00;67.26
26083;BME280;13848;49.018;12.078;2023-04-10T06:44:36;98426.31;;;8.18;67.35
26083;BME280;13848;49.018;12.078;2023-04-10T06:47:01;98433.44;;;8.11;67.36
26083;BME280;13848;49.018;12.078;2023-04-10T06:49:29;98422.25;;;7.93;68.34
26083;BME280;13848;49.018;12.078;2023-04-10T06:51:55;98430.03;;;7.88;68.24
26083;BME280;13848;49.018;12.078;2023-04-10T06:54:21;98424.38;;;7.97;68.09
26083;BME280;13848;49.018;12.078;2023-04-10T06:56:46;98422.59;;;8.05;68.66
26083;BME280;13848;49.018;12.078;2023-04-10T06:59:12;98421.28;;;8.15;67.68
26083;BME280;13848;49.018;12.078;2023-04-10T07:01:39;98421.66;;;8.42;67.57
26083;BME280;13848;49.018;12.078;2023-04-10T07:04:05;98419.03;;;8.34;67.77
26083;BME280;13848;49.018;12.078;2023-04-10T07:06:32;98425.56;;;8.24;67.53
26083;BME280;13848;49.018;12.078;2023-04-10T07:08:58;98418.19;;;7.97;68.29
26083;BME280;13848;49.018;12.078;2023-04-10T07:11:24;98422.03;;;8.09;68.05
26083;BME280;13848;49.018;12.078;2023-04-10T07:13:50;98429.94;;;7.81;69.48
26083;BME280;13848;49.018;12.078;2023-04-10T07:16:16;98434.00;;;7.92;68.51
26083;BME280;13848;49.018;12.078;2023-04-10T07:18:42;98421.13;;;8.02;68.65
26083;BME280;13848;49.018;12.078;2023-04-10T07:21:09;98423.56;;;8.48;67.29
26083;BME280;13848;49.018;12.078;2023-04-10T07:23:37;98433.50;;;8.69;66.52
26083;BME280;13848;49.018;12.078;2023-04-10T07:26:03;98432.72;;;8.75;66.64
26083;BME280;13848;49.018;12.078;2023-04-10T07:28:29;98442.03;;;8.94;66.48
26083;BME280;13848;49.018;12.078;2023-04-10T07:30:55;98430.22;;;8.73;65.71
26083;BME280;13848;49.018;12.078;2023-04-10T07:33:21;98441.75;;;9.10;65.05
26083;BME280;13848;49.018;12.078;2023-04-10T07:35:46;98451.63;;;8.60;65.71
26083;BME280;13848;49.018;12.078;2023-04-10T07:38:13;98440.47;;;8.63;67.00
26083;BME280;13848;49.018;12.078;2023-04-10T07:40:40;98443.44;;;9.11;65.53
26083;BME280;13848;49.018;12.078;2023-04-10T07:43:06;98442.59;;;9.11;64.58
26083;BME280;13848;49.018;12.078;2023-04-10T07:45:32;98440.75;;;9.39;65.43
26083;BME280;13848;49.018;12.078;2023-04-10T07:47:58;98444.44;;;9.94;63.76
26083;BME280;13848;49.018;12.078;2023-04-10T07:50:24;98450.75;;;9.45;64.22
26083;BME280;13848;49.018;12.078;2023-04-10T07:52:50;98444.50;;;9.45;64.59
26083;BME280;13848;49.018;12.078;2023-04-10T07:55:16;98440.63;;;9.82;63.92
26083;BME280;13848;49.018;12.078;2023-04-10T07:57:43;98434.63;;;10.21;63.83
26083;BME280;13848;49.018;12.078;2023-04-10T08:00:10;98430.88;;;10.16;62.48
26083;BME280;13848;49.018;12.078;2023-04-10T08:02:36;98432.38;;;10.25;61.67
26083;BME280;13848;49.018;12.078;2023-04-10T08:05:03;98437.06;;;10.09;62.24
26083;BME280;13848;49.018;12.078;2023-04-10T08:07:28;98431.22;;;10.06;62.00
26083;BME280;13848;49.018;12.078;2023-04-10T08:09:54;98433.75;;;10.62;61.43
26083;BME280;13848;49.018;12.078;2023-04-10T08:12:20;98417.34;;;10.63;61.53
26083;BME280;13848;49.018;12.078;2023-04-10T08:14:48;98418.84;;;10.79;60.78
26083;BME280;13848;49.018;12.078;2023-04-10T08:17:13;98417.78;;;10.67;59.73
26083;BME280;13848;49.018;12.078;2023-04-10T08:19:40;98426.75;;;11.01;62.01
26083;BME280;13848;49.018;12.078;2023-04-10T08:22:06;98420.72;;;10.99;60.30
26083;BME280;13848;49.018;12.078;2023-04-10T08:24:32;98435.28;;;11.11;59.26
26083;BME280;13848;49.018;12.078;2023-04-10T08:26:58;98409.13;;;10.98;59.67
26083;BME280;13848;49.018;12.078;2023-04-10T08:29:23;98422.81;;;10.97;57.89
26083;BME280;13848;49.018;12.078;2023-04-10T08:31:51;98422.00;;;11.42;58.53
26083;BME280;13848;49.018;12.078;2023-04-10T08:34:17;98418.25;;;11.50;58.16
26083;BME280;13848;49.018;12.078;2023-04-10T08:36:43;98418.00;;;11.58;57.03
26083;BME280;13848;49.018;12.078;2023-04-10T08:39:09;98421.50;;;10.66;57.26
26083;BME280;13848;49.018;12.078;2023-04-10T08:41:34;98414.31;;;10.25;59.32
26083;BME280;13848;49.018;12.078;2023-04-10T08:44:00;98423.44;;;10.99;57.75
26083;BME280;13848;49.018;12.078;2023-04-10T08:46:28;98417.22;;;10.98;56.97
26083;BME280;13848;49.018;12.078;2023-04-10T08:49:00;98411.59;;;11.33;57.94
26083;BME280;13848;49.018;12.078;2023-04-10T08:51:30;98423.38;;;11.91;55.07
26083;BME280;13848;49.018;12.078;2023-04-10T08:53:59;98431.50;;;11.65;54.84
26083;BME280;13848;49.018;12.078;2023-04-10T08:56:30;98420.94;;;10.90;57.30
26083;BME280;13848;49.018;12.078;2023-04-10T08:58:57;98406.97;;;11.73;56.24
26083;BME280;13848;49.018;12.078;2023-04-10T09:01:24;98407.38;;;11.96;54.43
26083;BME280;13848;49.018;12.078;2023-04-10T09:03:50;98393.28;;;11.68;54.42
26083;BME280;13848;49.018;12.078;2023-04-10T09:06:17;98406.41;;;11.05;55.82
26083;BME280;13848;49.018;12.078;2023-04-10T09:08:43;98403.53;;;11.19;56.40
26083;BME280;13848;49.018;12.078;2023-04-10T09:11:09;98401.31;;;12.08;55.62
26083;BME280;13848;49.018;12.078;2023-04-10T09:13:37;98396.59;;;11.70;53.72
26083;BME280;13848;49.018;12.078;2023-04-10T09:16:04;98392.94;;;11.31;55.95
26083;BME280;13848;49.018;12.078;2023-04-10T09:18:44;98390.44;;;11.10;56.28
26083;BME280;13848;49.018;12.078;2023-04-10T09:21:11;98387.28;;;11.53;56.07
26083;BME280;13848;49.018;12.078;2023-04-10T09:23:40;98385.00;;;11.36;55.32
26083;BME280;13848;49.018;12.078;2023-04-10T09:26:21;98389.97;;;11.53;55.29
26083;BME280;13848;49.018;12.078;2023-04-10T09:28:55;98380.22;;;12.23;54.27
26083;BME280;13848;49.018;12.078;2023-04-10T09:31:27;98380.63;;;12.27;52.12
26083;BME280;13848;49.018;12.078;2023-04-10T09:34:06;98388.88;;;12.38;52.63
26083;BME280;13848;49.018;12.078;2023-04-10T09:36:32;98372.38;;;12.15;53.45
26083;BME280;13848;49.018;12.078;2023-04-10T09:38:59;98377.47;;;12.68;52.85
26083;BME280;13848;49.018;12.078;2023-04-10T09:41:25;98375.81;;;12.29;50.83
26083;BME280;13848;49.018;12.078;2023-04-10T09:44:04;98370.19;;;12.37;52.12
26083;BME280;13848;49.018;12.078;2023-04-10T09:46:30;98374.91;;;12.79;50.26
26083;BME280;13848;49.018;12.078;2023-04-10T09:48:56;98360.41;;;11.91;51.55
26083;BME280;13848;49.018;12.078;2023-04-10T09:51:27;98368.03;;;12.07;51.97
26083;BME280;13848;49.018;12.078;2023-04-10T09:53:53;98358.84;;;11.43;53.31
26083;BME280;13848;49.018;12.078;2023-04-10T09:56:21;98363.19;;;12.86;50.51
26083;BME280;13848;49.018;12.078;2023-04-10T09:58:48;98346.69;;;13.19;49.77
26083;BME280;13848;49.018;12.078;2023-04-10T10:01:15;98349.19;;;13.64;49.11
26083;BME280;13848;49.018;12.078;2023-04-10T10:03:42;98358.31;;;12.69;47.74
26083;BME280;13848;49.018;12.078;2023-04-10T10:06:10;98335.34;;;12.54;48.74
26083;BME280;13848;49.018;12.078;2023-04-10T10:08:36;98349.03;;;12.59;49.03
26083;BME280;13848;49.018;12.078;2023-04-10T10:11:03;98338.16;;;11.95;49.66
26083;BME280;13848;49.018;12.078;2023-04-10T10:13:36;98337.47;;;13.01;50.01
26083;BME280;13848;49.018;12.078;2023-04-10T10:16:09;98330.50;;;13.55;47.83
26083;BME280;13848;49.018;12.078;2023-04-10T10:18:42;98340.91;;;13.58;48.17
26083;BME280;13848;49.018;12.078;2023-04-10T10:21:09;98340.19;;;13.01;47.33
26083;BME280;13848;49.018;12.078;2023-04-10T10:23:35;98322.00;;;13.34;47.82
26083;BME280;13848;49.018;12.078;2023-04-10T10:26:04;98336.66;;;13.26;46.17
26083;BME280;13848;49.018;12.078;2023-04-10T10:28:32;98321.56;;;13.73;45.87
26083;BME280;13848;49.018;12.078;2023-04-10T10:30:59;98319.91;;;13.72;45.61
26083;BME280;13848;49.018;12.078;2023-04-10T10:33:26;98321.56;;;13.55;46.18
26083;BME280;13848;49.018;12.078;2023-04-10T10:35:57;98312.31;;;13.63;46.08
26083;BME280;13848;49.018;12.078;2023-04-10T10:38:24;98303.97;;;14.73;45.68
26083;BME280;13848;49.018;12.078;2023-04-10T10:40:53;98295.97;;;14.18;45.84
26083;BME280;13848;49.018;12.078;2023-04-10T10:43:34;98295.69;;;14.37;44.05
26083;BME280;13848;49.018;12.078;2023-04-10T10:46:02;98299.47;;;14.06;43.71
26083;BME280;13848;49.018;12.078;2023-04-10T10:48:29;98308.72;;;13.69;45.35
26083;BME280;13848;49.018;12.078;2023-04-10T10:50:56;98286.06;;;14.11;44.95
26083;BME280;13848;49.018;12.078;2023-04-10T10:53:33;98283.16;;;14.67;44.57
26083;BME280;13848;49.018;12.078;2023-04-10T10:56:33;98277.88;;;14.72;43.01
26083;BME280;13848;49.018;12.078;2023-04-10T10:58:59;98276.56;;;14.62;43.03
26083;BME280;13848;49.018;12.078;2023-04-10T11:01:25;98281.44;;;15.07;40.94
26083;BME280;13848;49.018;12.078;2023-04-10T11:03:51;98270.50;;;14.19;43.66
26083;BME280;13848;49.018;12.078;2023-04-10T11:06:18;98273.88;;;14.32;42.20
26083;BME280;13848;49.018;12.078;2023-04-10T11:08:45;98268.28;;;14.16;42.81
26083;BME280;13848;49.018;12.078;2023-04-10T11:11:16;98258.88;;;14.83;41.29
26083;BME280;13848;49.018;12.078;2023-04-10T11:14:12;98264.91;;;14.74;40.75
26083;BME280;13848;49.018;12.078;2023-04-10T11:16:43;98250.75;;;14.00;42.23
26083;BME280;13848;49.018;12.078;2023-04-10T11:19:10;98259.13;;;13.98;43.02
26083;BME280;13848;49.018;12.078;2023-04-10T11:21:59;98250.88;;;13.56;42.81
26083;BME280;13848;49.018;12.078;2023-04-10T11:24:26;98234.25;;;14.43;42.09
26083;BME280;13848;49.018;12.078;2023-04-10T11:26:52;98238.38;;;13.92;42.61
26083;BME280;13848;49.018;12.078;2023-04-10T11:29:34;98230.25;;;14.46;43.12
26083;BME280;13848;49.018;12.078;2023-04-10T11:32:02;98229.34;;;15.34;40.83
26083;BME280;13848;49.018;12.078;2023-04-10T11:34:28;98233.16;;;14.86;41.81
26083;BME280;13848;49.018;12.078;2023-04-10T11:36:54;98235.72;;;13.37;41.70
26083;BME280;13848;49.018;12.078;2023-04-10T11:39:20;98231.25;;;13.43;42.82
26083;BME280;13848;49.018;12.078;2023-04-10T11:41:48;98226.25;;;13.28;42.91
26083;BME280;13848;49.018;12.078;2023-04-10T11:44:18;98223.81;;;14.17;43.00
26083;BME280;13848;49.018;12.078;2023-04-10T11:46:46;98217.69;;;14.86;42.05
26083;BME280;13848;49.018;12.078;2023-04-10T11:49:19;98223.00;;;15.16;42.04
26083;BME280;13848;49.018;12.078;2023-04-10T11:51:46;98226.78;;;14.69;41.19
26083;BME280;13848;49.018;12.078;2023-04-10T11:54:14;98206.44;;;15.30;40.95
26083;BME280;13848;49.018;12.078;2023-04-10T11:56:41;98204.56;;;15.07;40.32
26083;BME280;13848;49.018;12.078;2023-04-10T11:59:07;98205.84;;;15.28;40.50
26083;BME280;13848;49.018;12.078;2023-04-10T12:01:34;98195.34;;;14.49;41.99
26083;BME280;13848;49.018;12.078;2023-04-10T12:04:01;98191.38;;;15.91;41.40
26083;BME280;13848;49.018;12.078;2023-04-10T12:06:28;98195.56;;;16.27;39.55
26083;BME280;13848;49.018;12.078;2023-04-10T12:08:54;98181.31;;;15.11;40.11
26083;BME280;13848;49.018;12.078;2023-04-10T12:11:22;98187.84;;;14.98;40.85
26083;BME280;13848;49.018;12.078;2023-04-10T12:13:51;98182.28;;;15.57;39.18
26083;BME280;13848;49.018;12.078;2023-04-10T12:16:17;98176.41;;;15.77;38.71
26083;BME280;13848;49.018;12.078;2023-04-10T12:18:43;98176.94;;;15.62;38.95
26083;BME280;13848;49.018;12.078;2023-04-10T12:21:11;98171.47;;;16.69;39.63
26083;BME280;13848;49.018;12.078;2023-04-10T12:23:37;98174.72;;;16.49;38.36
26083;BME280;13848;49.018;12.078;2023-04-10T12:26:11;98189.44;;;15.75;37.55
26083;BME280;13848;49.018;12.078;2023-04-10T12:28:39;98188.53;;;14.58;39.20
26083;BME280;13848;49.018;12.078;2023-04-10T12:31:06;98178.38;;;14.66;40.22
26083;BME280;13848;49.018;12.078;2023-04-10T12:33:32;98168.69;;;15.57;39.46
26083;BME280;13848;49.018;12.078;2023-04-10T12:35:58;98169.28;;;15.87;40.59
26083;BME280;13848;49.018;12.078;2023-04-10T12:38:39;98161.75;;;16.06;38.15
26083;BME280;13848;49.018;12.078;2023-04-10T12:41:06;98167.34;;;16.16;37.44
26083;BME280;13848;49.018;12.078;2023-04-10T12:43:34;98163.56;;;16.17;37.72
26083;BME280;13848;49.018;12.078;2023-04-10T12:46:01;98165.09;;;15.28;37.67
26083;BME280;13848;49.018;12.078;2023-04-10T12:48:27;98163.38;;;15.50;37.49
26083;BME280;13848;49.018;12.078;2023-04-10T12:50:53;98169.78;;;14.57;38.43
26083;BME280;13848;49.018;12.078;2023-04-10T12:53:19;98156.88;;;14.29;40.02
26083;BME280;13848;49.018;12.078;2023-04-10T12:55:57;98145.00;;;15.29;39.23
26083;BME280;13848;49.018;12.078;2023-04-10T12:58:23;98149.69;;;15.85;37.85